KABY/ABY METAR and TAF weather

Enter ICAO airport designator
Station Type Date Time Source
KABY METAR 2019/12/08 18:53 UTC NOAA

KABY 081853Z 07006KT 10SM BKN035 BKN080 OVC100 17/11 A3023 RMK AO2 SLP236 T01670106


Station Type Date Time Source
KABY Decoded METAR 2019/12/08 18:53 UTC NOAA

ALBANY SOUTHWEST GEORGIA, GA, United States (KABY) 31-32N 084-12W 58M
Dec 08, 2019 - 01:53 PM EST / 2019.12.08 1853 UTC
Wind: from the ENE (070 degrees) at 7 MPH (6 KT):0
Visibility: 10 mile(s):0
Sky conditions: overcast
Temperature: 62.1 F (16.7 C)
Dew Point: 51.1 F (10.6 C)
Relative Humidity: 67%
Pressure (altimeter): 30.23 in. Hg (1023 hPa)
ob: KABY 081853Z 07006KT 10SM BKN035 BKN080 OVC100 17/11 A3023 RMK AO2 SLP236 T01670106
cycle: 19

Station Type Date Time Source
KABY TAF 2019/12/08 19:15 UTC NOAA

TAF
AMD KABY 081912Z 0819/0918 09008KT P6SM BKN040
FM082100 09007KT P6SM OVC050
FM090600 12007KT P6SM OVC010
FM091500 19011KT P6SM OVC025

Example: see airport list